createdAt,value
2016-07-30T16:34:54.112Z,310
2016-07-30T16:35:55.055Z,270
2016-07-30T16:36:54.877Z,280
2016-07-30T16:37:54.894Z,295
2016-07-30T16:38:55.637Z,300
2016-07-30T16:39:55.670Z,315
2016-07-30T16:41:54.991Z,280
2016-07-30T16:42:55.852Z,265
2016-07-30T16:43:53.726Z,235
2016-07-30T16:44:55.882Z,210
2016-07-30T16:45:55.114Z,220
2016-07-30T16:46:55.901Z,235
2016-07-30T16:47:55.184Z,235
2016-07-30T16:48:54.474Z,220
2016-07-30T16:49:55.915Z,210
2016-07-30T16:50:55.243Z,215
2016-07-30T16:51:55.318Z,200
2016-07-30T16:52:55.996Z,200
2016-07-30T16:53:54.613Z,200
2016-07-30T16:54:56.029Z,210
2016-07-30T16:56:54.030Z,225
2016-07-30T16:57:54.723Z,225
2016-07-30T16:58:56.141Z,205
2016-07-30T16:59:55.464Z,185
2016-07-30T17:00:53.431Z,175
2016-07-30T17:01:54.080Z,170
2016-07-30T17:02:55.628Z,175
2016-07-30T17:03:55.562Z,185
2016-07-30T17:04:54.953Z,195
2016-07-30T17:05:53.547Z,190
2016-07-30T17:06:55.753Z,185
2016-07-30T17:07:54.962Z,185
2016-07-30T17:08:55.730Z,190
2016-07-30T17:09:55.734Z,190
2016-07-30T17:10:55.732Z,185
2016-07-30T17:11:55.189Z,185
2016-07-30T17:12:55.083Z,185
2016-07-30T17:13:56.003Z,190
2016-07-30T17:14:55.163Z,195
2016-07-30T17:15:56.015Z,190
2016-07-30T17:16:55.984Z,190
2016-07-30T17:17:56.692Z,195
2016-07-30T17:18:55.225Z,190
2016-07-30T17:19:55.937Z,185
2016-07-30T17:20:55.981Z,180
2016-07-30T17:21:55.282Z,180
2016-07-30T17:22:55.420Z,185
2016-07-30T17:23:56.115Z,180
2016-07-30T17:24:56.783Z,190
2016-07-30T17:25:56.106Z,195
2016-07-30T17:26:56.265Z,195
2016-07-30T17:27:55.435Z,185
2016-07-30T17:28:56.870Z,175
2016-07-30T17:29:56.952Z,165
2016-07-30T17:30:56.243Z,165
2016-07-30T17:31:56.256Z,155
2016-07-30T17:32:56.294Z,145
2016-07-30T17:33:56.302Z,140
2016-07-30T17:34:55.681Z,140
2016-07-30T17:35:55.692Z,145
2016-07-30T17:36:56.391Z,145
2016-07-30T17:37:57.232Z,145
2016-07-30T17:38:56.421Z,145
2016-07-30T17:39:55.740Z,145
2016-07-30T17:40:57.193Z,145
2016-07-30T17:41:56.544Z,140
2016-07-30T17:42:55.797Z,135
2016-07-30T17:43:55.833Z,135
2016-07-30T17:44:55.872Z,135
2016-07-30T17:45:56.597Z,140
2016-07-30T17:46:56.625Z,145
2016-07-30T17:47:57.341Z,145
2016-07-30T17:48:56.006Z,145
2016-07-30T17:49:57.407Z,145
2016-07-30T17:50:57.420Z,140
2016-07-30T17:51:56.757Z,140
2016-07-30T17:52:57.653Z,145
2016-07-30T17:53:56.774Z,140
2016-07-30T17:54:56.135Z,135
2016-07-30T17:55:56.825Z,135
2016-07-30T17:56:56.853Z,135
2016-07-30T17:57:56.864Z,125
2016-07-30T17:58:56.893Z,125
2016-07-30T17:59:56.252Z,125
2016-07-30T18:00:56.933Z,120
2016-07-30T18:01:57.663Z,115
2016-07-30T18:02:57.680Z,110
2016-07-30T18:03:57.064Z,105
2016-07-30T18:04:57.065Z,100
2016-07-30T18:05:57.045Z,95
2016-07-30T18:06:57.169Z,95
2016-07-30T18:07:56.385Z,90
2016-07-30T18:08:57.182Z,90
2016-07-30T18:09:57.844Z,90
2016-07-30T18:10:57.203Z,90
2016-07-30T18:11:57.207Z,85
2016-07-30T18:12:57.229Z,85
2016-07-30T18:13:57.272Z,85
2016-07-30T18:14:57.294Z,85
2016-07-30T18:15:57.304Z,85
2016-07-30T18:16:56.629Z,85
2016-07-30T18:17:57.358Z,80
2016-07-30T18:18:58.133Z,80
2016-07-30T18:19:57.358Z,80
2016-07-30T18:20:56.706Z,80
2016-07-30T18:21:58.246Z,80
2016-07-30T18:22:57.450Z,75
2016-07-30T18:23:56.166Z,75
2016-07-30T18:24:57.527Z,75
2016-07-30T18:25:57.626Z,75
2016-07-30T18:26:58.263Z,70
2016-07-30T18:27:56.907Z,70
2016-07-30T18:28:58.295Z,70
2016-07-30T18:29:56.910Z,70
2016-07-30T18:30:57.875Z,70
2016-07-30T18:31:56.976Z,75
2016-07-30T18:32:57.098Z,75
2016-07-30T18:33:57.718Z,75
2016-07-30T18:34:57.325Z,75
2016-07-30T18:35:57.746Z,80
2016-07-30T18:36:57.834Z,75
2016-07-30T18:37:58.537Z,75
2016-07-30T18:38:57.182Z,70
2016-07-30T18:39:57.155Z,70
2016-07-30T18:40:58.635Z,70
2016-07-30T18:41:58.614Z,70
2016-07-30T18:42:56.510Z,65
2016-07-30T18:43:57.274Z,65
2016-07-30T18:44:56.564Z,65
2016-07-30T18:45:57.316Z,60
2016-07-30T18:46:56.588Z,60
2016-07-30T18:47:58.807Z,60
2016-07-30T18:48:57.401Z,60
2016-07-30T18:49:58.792Z,55
2016-07-30T18:50:58.804Z,55
2016-07-30T18:51:58.966Z,50
2016-07-30T18:52:58.837Z,50
2016-07-30T18:53:58.937Z,50
2016-07-30T18:54:58.894Z,50
2016-07-30T18:55:58.986Z,50
2016-07-30T18:56:58.295Z,45
2016-07-30T18:57:57.549Z,45
2016-07-30T18:58:59.074Z,40
2016-07-30T18:59:57.606Z,40
2016-07-30T19:00:59.055Z,40
2016-07-30T19:01:57.009Z,35
2016-07-30T19:02:58.375Z,35
2016-07-30T19:03:57.697Z,35
2016-07-30T19:04:58.425Z,35
2016-07-30T19:05:57.740Z,30
2016-07-30T19:06:59.164Z,30
2016-07-30T19:07:59.195Z,30
2016-07-30T19:08:58.502Z,25
2016-07-30T19:09:59.227Z,25
2016-07-30T19:10:59.256Z,25
2016-07-30T19:11:57.926Z,20
2016-07-30T19:12:59.314Z,20
2016-07-30T19:13:57.916Z,20
2016-07-30T19:14:59.355Z,15
2016-07-30T19:15:59.377Z,15
2016-07-30T19:16:58.675Z,15
2016-07-30T19:17:57.299Z,10
2016-07-30T19:18:58.037Z,10
2016-07-30T19:19:58.066Z,10
2016-07-30T19:20:56.635Z,10
2016-07-30T19:21:58.785Z,10
2016-07-30T19:22:58.886Z,5
2016-07-30T19:23:58.836Z,5
2016-07-30T19:24:58.895Z,5
2016-07-30T19:25:58.872Z,5
2016-07-30T19:26:58.905Z,5
2016-07-30T19:27:58.225Z,5
2016-07-30T19:28:58.969Z,5
2016-07-30T19:29:58.260Z,5
2016-07-30T19:30:59.706Z,5
2016-07-30T19:31:59.745Z,5
2016-07-30T19:32:59.746Z,0
2016-07-30T19:33:59.744Z,0
2016-07-30T19:34:59.791Z,0
2016-07-30T19:35:59.862Z,0
2016-07-30T19:36:59.124Z,0
2016-07-30T19:37:59.142Z,0
2016-07-30T19:38:59.170Z,0
2016-07-30T19:39:58.492Z,0
2016-07-30T19:40:58.551Z,0
2016-07-30T19:41:59.943Z,0
2016-07-30T19:42:59.511Z,0
2016-07-30T19:43:59.288Z,0
2016-07-30T19:44:59.333Z,0
2016-07-30T19:45:59.331Z,0
2016-07-30T19:47:00.031Z,0
2016-07-30T19:47:59.377Z,0
2016-07-30T19:48:59.392Z,0
2016-07-30T19:50:00.102Z,0
2016-07-30T19:50:58.716Z,0
2016-07-30T19:51:59.439Z,0
2016-07-30T19:52:59.502Z,0
2016-07-30T19:53:59.563Z,0
2016-07-30T19:54:59.522Z,0
2016-07-30T19:56:00.251Z,0
2016-07-30T19:56:59.569Z,0
2016-07-30T19:58:00.439Z,0
2016-07-30T19:59:00.335Z,0
2016-07-30T19:59:59.088Z,0
2016-07-30T20:00:59.632Z,0
2016-07-30T20:02:00.560Z,0
2016-07-30T20:02:59.036Z,0
2016-07-30T20:03:59.002Z,0
2016-07-30T20:04:59.715Z,0
2016-07-30T20:05:59.721Z,0
2016-07-30T20:06:59.251Z,0
2016-07-30T20:07:59.098Z,0
2016-07-30T20:08:59.290Z,0
2016-07-30T20:09:58.475Z,0
2016-07-30T20:11:00.583Z,0
2016-07-30T20:12:00.501Z,0
2016-07-30T20:12:59.223Z,0
2016-07-30T20:13:58.592Z,0
2016-07-30T20:14:59.231Z,0
2016-07-30T20:16:00.701Z,0
2016-07-30T20:16:59.282Z,0
2016-07-30T20:18:00.722Z,0
2016-07-30T20:19:00.801Z,0
2016-07-30T20:20:00.771Z,0
2016-07-30T20:21:00.193Z,0
2016-07-30T20:21:58.682Z,0
2016-07-30T20:23:00.841Z,0
2016-07-30T20:24:00.219Z,0
2016-07-30T20:25:00.886Z,0
2016-07-30T20:26:00.920Z,0
2016-07-30T20:27:01.471Z,0
2016-07-30T20:28:00.227Z,0
2016-07-30T20:28:59.644Z,0
2016-07-30T20:30:00.984Z,0
2016-07-30T20:31:00.983Z,0
2016-07-30T20:32:00.343Z,0
2016-07-30T20:33:00.489Z,0
2016-07-30T20:34:01.064Z,0
2016-07-30T20:35:00.412Z,0
2016-07-30T20:36:00.403Z,0
2016-07-30T20:37:01.132Z,0
2016-07-30T20:37:59.814Z,0
2016-07-30T20:39:00.440Z,0
2016-07-30T20:40:01.193Z,0
2016-07-30T20:41:00.546Z,0
2016-07-30T20:42:00.365Z,0
2016-07-30T20:42:59.852Z,0
2016-07-30T20:43:59.911Z,0
2016-07-30T20:44:59.871Z,0
2016-07-30T20:46:01.299Z,0
2016-07-30T20:47:01.339Z,0
2016-07-30T20:48:01.420Z,0
2016-07-30T20:49:01.378Z,0
2016-07-30T20:50:00.775Z,0
2016-07-30T20:51:00.724Z,0
2016-07-30T20:52:00.792Z,0
2016-07-30T20:53:00.777Z,0
2016-07-30T20:54:00.780Z,0
2016-07-30T20:55:01.503Z,0
2016-07-30T20:56:00.863Z,0
2016-07-30T20:58:00.872Z,0
2016-07-30T20:59:01.673Z,0
2016-07-30T20:59:59.501Z,0
2016-07-30T21:01:01.644Z,0
2016-07-30T21:02:00.272Z,0
2016-07-30T21:03:01.689Z,0
2016-07-30T21:04:01.755Z,0
2016-07-30T21:05:01.013Z,0
2016-07-30T21:06:00.348Z,0
2016-07-30T21:06:59.642Z,0
2016-07-30T21:08:01.878Z,0
2016-07-30T21:09:01.125Z,0
2016-07-30T21:10:01.151Z,0
2016-07-30T21:10:59.835Z,0
2016-07-30T21:13:01.193Z,0
2016-07-30T21:14:00.585Z,0
2016-07-30T21:15:01.961Z,0
2016-07-30T21:16:02.020Z,0
2016-07-30T21:17:00.696Z,0
2016-07-30T21:18:00.614Z,0
2016-07-30T21:19:02.146Z,0
2016-07-30T21:20:02.032Z,0
2016-07-30T21:21:02.092Z,0
2016-07-30T21:22:00.681Z,0
2016-07-30T21:23:01.543Z,0
2016-07-30T21:24:01.432Z,0
2016-07-30T21:25:01.483Z,0
2016-07-30T21:26:01.451Z,0
2016-07-30T21:27:02.230Z,0
2016-07-30T21:28:01.739Z,0
2016-07-30T21:29:00.821Z,0
2016-07-30T21:30:01.673Z,0
2016-07-30T21:31:01.560Z,0
2016-07-30T21:32:01.818Z,0
2016-07-30T21:33:02.310Z,0
2016-07-30T21:34:01.683Z,0
2016-07-30T21:35:02.398Z,0
2016-07-30T21:36:01.720Z,0
2016-07-30T21:37:02.420Z,0
2016-07-30T21:38:01.022Z,0
2016-07-30T21:39:01.778Z,0
2016-07-30T21:40:01.948Z,0
2016-07-30T21:41:02.550Z,0
2016-07-30T21:42:02.529Z,0
2016-07-30T21:43:01.834Z,0
2016-07-30T21:44:02.559Z,0
2016-07-30T21:45:01.941Z,0
2016-07-30T21:46:02.580Z,0
2016-07-30T21:47:01.955Z,0
2016-07-30T21:48:01.946Z,0
2016-07-30T21:49:02.051Z,0
2016-07-30T21:50:01.267Z,0
2016-07-30T21:51:02.020Z,0
2016-07-30T21:52:02.020Z,0
2016-07-30T21:53:02.901Z,0
2016-07-30T21:54:02.770Z,0
2016-07-30T21:55:02.766Z,0
2016-07-30T21:56:02.848Z,0
2016-07-30T21:57:02.839Z,0
2016-07-30T21:58:00.760Z,0
2016-07-30T21:59:02.161Z,0
2016-07-30T22:00:03.023Z,0
2016-07-30T22:01:02.944Z,0
2016-07-30T22:02:01.540Z,0
2016-07-30T22:03:02.348Z,0
2016-07-30T22:04:02.274Z,0
2016-07-30T22:05:03.003Z,0
2016-07-30T22:06:02.342Z,0
2016-07-30T22:07:03.050Z,0
2016-07-30T22:08:01.681Z,0
2016-07-30T22:09:01.709Z,0
2016-07-30T22:10:03.155Z,0
2016-07-30T22:11:01.020Z,0
2016-07-30T22:12:01.031Z,0
2016-07-30T22:13:01.851Z,0
2016-07-30T22:14:03.192Z,0
2016-07-30T22:15:02.520Z,0
2016-07-30T22:16:01.193Z,0
2016-07-30T22:17:02.571Z,0
2016-07-30T22:18:02.558Z,0
2016-07-30T22:19:02.592Z,0
2016-07-30T22:20:03.318Z,0
2016-07-30T22:21:03.420Z,0
2016-07-30T22:22:01.990Z,0
2016-07-30T22:23:02.677Z,0
2016-07-30T22:24:02.725Z,0
2016-07-30T22:25:02.723Z,0
2016-07-30T22:26:03.473Z,0
2016-07-30T22:27:01.350Z,0
2016-07-30T22:28:02.089Z,0
2016-07-30T22:29:02.831Z,0
2016-07-30T22:30:02.841Z,0
2016-07-30T22:31:02.301Z,0
2016-07-30T22:32:02.891Z,0
2016-07-30T22:33:02.940Z,0
2016-07-30T22:34:02.209Z,0
2016-07-30T22:35:02.951Z,0
2016-07-30T22:36:03.710Z,0
2016-07-30T22:37:02.988Z,0
2016-07-30T22:38:03.001Z,0
2016-07-30T22:39:03.801Z,0
2016-07-30T22:40:03.051Z,0
2016-07-30T22:41:03.818Z,0
2016-07-30T22:42:02.369Z,0
2016-07-30T22:43:02.409Z,0
2016-07-30T22:44:03.219Z,0
2016-07-30T22:45:03.882Z,0
2016-07-30T22:46:02.515Z,0
2016-07-30T22:47:03.280Z,0
2016-07-30T22:48:03.993Z,0
2016-07-30T22:49:03.934Z,0
2016-07-30T22:50:03.981Z,0
2016-07-30T22:51:03.284Z,0
2016-07-30T22:52:04.012Z,0
2016-07-30T22:53:04.042Z,0
2016-07-30T22:54:03.369Z,0
2016-07-30T22:55:04.089Z,0
2016-07-30T22:56:03.396Z,0
2016-07-30T22:57:04.134Z,0
2016-07-30T22:58:03.483Z,0
2016-07-30T22:59:01.442Z,0
2016-07-30T23:00:02.786Z,0
2016-07-30T23:01:02.102Z,0
2016-07-30T23:02:02.164Z,0
2016-07-30T23:03:02.817Z,0
2016-07-30T23:04:03.584Z,0
2016-07-30T23:05:02.239Z,0
2016-07-30T23:06:04.294Z,0
2016-07-30T23:07:04.362Z,0
2016-07-30T23:08:03.082Z,0
2016-07-30T23:09:03.689Z,0
2016-07-30T23:10:03.697Z,0
2016-07-30T23:11:03.012Z,0
2016-07-30T23:12:03.751Z,0
2016-07-30T23:13:03.036Z,0
2016-07-30T23:14:03.778Z,0
2016-07-30T23:15:03.804Z,0
2016-07-30T23:16:04.570Z,0
2016-07-30T23:17:04.530Z,0
2016-07-30T23:18:02.533Z,0
2016-07-30T23:19:03.270Z,0
2016-07-30T23:20:04.599Z,0
2016-07-30T23:21:03.910Z,0
2016-07-30T23:22:03.944Z,0
2016-07-30T23:23:03.982Z,0
2016-07-30T23:24:04.692Z,0
2016-07-30T23:25:04.012Z,0
2016-07-30T23:26:03.319Z,0
2016-07-30T23:27:04.800Z,0
2016-07-30T23:28:04.055Z,0
2016-07-30T23:29:03.474Z,0
2016-07-30T23:30:02.744Z,0
2016-07-30T23:31:04.145Z,0
2016-07-30T23:32:04.850Z,0
2016-07-30T23:33:04.171Z,0
2016-07-30T23:34:03.481Z,0
2016-07-30T23:35:04.204Z,0
2016-07-30T23:36:03.518Z,0
2016-07-30T23:37:03.569Z,0
2016-07-30T23:38:04.296Z,0
2016-07-30T23:39:05.022Z,0
2016-07-30T23:40:03.609Z,0
2016-07-30T23:41:04.403Z,0
2016-07-30T23:42:05.121Z,0
2016-07-30T23:43:04.440Z,0
2016-07-30T23:44:04.400Z,0
2016-07-30T23:45:03.699Z,0
2016-07-30T23:46:04.454Z,0
2016-07-30T23:47:04.498Z,0
2016-07-30T23:48:04.501Z,0
2016-07-30T23:49:05.301Z,0
2016-07-30T23:50:04.540Z,0
2016-07-30T23:51:03.131Z,0
2016-07-30T23:52:04.599Z,0
2016-07-30T23:53:04.612Z,0
2016-07-30T23:54:04.629Z,0
2016-07-30T23:55:03.215Z,0
2016-07-30T23:56:04.012Z,0
2016-07-30T23:57:05.481Z,0
2016-07-30T23:58:04.708Z,0
2016-07-30T23:59:04.710Z,0
